createdAt,value
2023-03-23T16:01:31.404Z,16.66
2023-03-23T16:06:35.448Z,16.57
2023-03-23T16:11:38.331Z,16.49
2023-03-23T16:16:44.560Z,16.41
2023-03-23T16:21:46.137Z,16.36
2023-03-23T16:26:47.657Z,16.28
2023-03-23T16:31:49.397Z,16.19
2023-03-23T16:36:50.936Z,16.11
2023-03-23T16:41:52.563Z,16.02
2023-03-23T16:46:54.529Z,15.91
2023-03-23T16:51:56.463Z,15.80
2023-03-23T16:56:58.516Z,15.70
2023-03-23T17:02:03.970Z,15.62
2023-03-23T17:07:05.861Z,15.51
2023-03-23T17:12:07.454Z,15.43
2023-03-23T17:17:12.512Z,15.35
2023-03-23T17:22:14.045Z,15.27
2023-03-23T17:27:17.819Z,15.20
2023-03-23T17:32:20.737Z,15.15
2023-03-23T17:37:22.705Z,15.08
2023-03-23T17:42:24.413Z,14.96
2023-03-23T17:47:25.983Z,14.86
2023-03-23T17:52:27.942Z,14.75
2023-03-23T17:57:29.570Z,14.65
2023-03-23T18:02:31.735Z,14.56
2023-03-23T18:07:33.399Z,14.48
2023-03-23T18:12:35.312Z,14.41
2023-03-23T18:17:37.523Z,14.34
2023-03-23T18:22:39.306Z,14.28
2023-03-23T18:27:42.064Z,14.24
2023-03-23T18:32:44.155Z,14.18
2023-03-23T18:37:48.123Z,14.11
2023-03-23T18:42:50.183Z,14.05
2023-03-23T18:47:54.210Z,13.97
2023-03-23T18:52:56.904Z,13.87
2023-03-23T18:58:00.625Z,13.78
2023-03-23T19:03:02.515Z,13.70
2023-03-23T19:08:06.121Z,13.75
2023-03-23T19:13:09.516Z,13.85
2023-03-23T19:18:11.227Z,13.91
2023-03-23T19:23:13.458Z,13.97
2023-03-23T19:33:20.351Z,14.06
2023-03-23T19:38:23.012Z,14.04
2023-03-23T19:43:26.523Z,14.00
2023-03-23T19:48:31.144Z,13.98
2023-03-23T19:53:33.452Z,13.95
2023-03-23T19:58:35.500Z,13.92
2023-03-23T20:03:38.002Z,13.87
2023-03-23T20:08:47.699Z,13.82
2023-03-23T20:13:49.859Z,13.74
2023-03-23T20:18:52.907Z,13.66
2023-03-23T20:23:58.630Z,13.58
2023-03-23T20:29:01.317Z,13.51
2023-03-23T20:34:09.554Z,13.42
2023-03-23T20:39:15.090Z,13.31
2023-03-23T20:44:18.433Z,13.24
2023-03-23T20:49:21.281Z,13.18
2023-03-23T20:54:24.676Z,13.10
2023-03-23T20:59:27.146Z,13.05
2023-03-23T21:04:30.187Z,12.97
2023-03-23T21:09:33.078Z,12.85
2023-03-23T21:14:40.122Z,12.76
2023-03-23T21:19:41.774Z,12.75
2023-03-23T21:24:43.405Z,12.73
2023-03-23T21:29:45.031Z,12.71
2023-03-23T21:34:47.690Z,12.66
2023-03-23T21:39:49.247Z,12.64
2023-03-23T21:44:50.794Z,12.66
2023-03-23T21:49:52.318Z,12.68
2023-03-23T21:54:54.066Z,12.73
2023-03-23T21:59:56.012Z,12.77
2023-03-23T22:04:57.998Z,12.81
2023-03-23T22:10:00.187Z,12.86
2023-03-23T22:15:02.773Z,12.89
2023-03-23T22:20:10.999Z,12.91
2023-03-23T22:25:13.519Z,12.91
2023-03-23T22:30:16.284Z,12.91
2023-03-23T22:35:18.066Z,12.92
2023-03-23T22:40:19.770Z,12.93
2023-03-23T22:45:23.605Z,12.98
2023-03-23T22:50:27.783Z,12.99
2023-03-23T22:55:29.423Z,12.97
2023-03-23T23:00:31.002Z,12.93
2023-03-23T23:05:32.562Z,12.89
2023-03-23T23:10:35.635Z,12.85
2023-03-23T23:15:40.493Z,12.78
2023-03-23T23:20:43.451Z,12.74
2023-03-23T23:25:46.356Z,12.76
2023-03-23T23:30:49.339Z,12.76
2023-03-23T23:35:52.054Z,12.73
2023-03-23T23:40:54.185Z,12.58
2023-03-23T23:45:56.735Z,12.34
2023-03-23T23:50:58.372Z,12.10
2023-03-23T23:56:04.470Z,11.86
